aviador You're here:

LZKZ Decoded Metar

KOSICE in SLOVAKIA
Report Time2017-08-17 13:00:00
UTC Time2017-08-17 13:27:27
Flight Rules vfr VFR
Wind040° at 07 kt
W.Decomp.*RWY 01: 6.3 kt HW 3.0 kt RCW
W.Rank040° ranks 8
Current wind is above 040° avg. (5.8)
Visibility9999 m
Phenomena:N/A
Clouds:N/A
Expected CloudBase > 8,400 ft AGL from Temp-Dew spread
CeilingNone
Temp30°C (ISA +17)
Dew Point09°C (27% RH)
Heat Index28.6°C
AAT27.2°C
QNH1018 hPa
Density Alt2,641 ft
Elevation761 ft
Report Wrong Elevation
Raw Report
LZKZ 171300Z 04007KT 020V090 CAVOK 30/09 Q1018 NOSIG=

Extra information for LZKZ:More info

Metar Taf Metar & Taf Last 4 Metars F.Rules Stats Wind Profile Meteogram Temp Stats Airport Information Weather charts Add Link Nearby VenuesMetar ALERT Operation Metar Decoded Social comments